sensor_id;sensor_type;location;lat;lon;timestamp;pressure;altitude;pressure_sealevel;temperature;humidity
70902;BME280;58548;47.210;8.618;2023-12-07T00:02:07;94282.03;;;12.18;37.47
70902;BME280;58548;47.210;8.618;2023-12-07T00:04:33;94287.91;;;12.34;37.18
70902;BME280;58548;47.210;8.618;2023-12-07T00:06:59;94299.63;;;12.38;37.21
70902;BME280;58548;47.210;8.618;2023-12-07T00:09:25;94316.34;;;12.37;36.87
70902;BME280;58548;47.210;8.618;2023-12-07T00:11:53;94323.41;;;12.36;37.27
70902;BME280;58548;47.210;8.618;2023-12-07T00:14:19;94293.47;;;12.11;37.61
70902;BME280;58548;47.210;8.618;2023-12-07T00:16:46;94276.13;;;12.03;37.36
70902;BME280;58548;47.210;8.618;2023-12-07T00:19:12;94298.13;;;12.15;37.22
70902;BME280;58548;47.210;8.618;2023-12-07T00:21:39;94329.81;;;12.34;37.68
70902;BME280;58548;47.210;8.618;2023-12-07T00:24:06;94336.31;;;12.45;37.61
70902;BME280;58548;47.210;8.618;2023-12-07T00:26:32;94260.78;;;12.00;37.32
70902;BME280;58548;47.210;8.618;2023-12-07T00:29:00;94295.91;;;12.19;37.26
70902;BME280;58548;47.210;8.618;2023-12-07T00:31:26;94336.72;;;12.42;37.32
70902;BME280;58548;47.210;8.618;2023-12-07T00:33:55;94331.88;;;12.39;37.21
70902;BME280;58548;47.210;8.618;2023-12-07T00:36:20;94326.81;;;12.37;37.60
70902;BME280;58548;47.210;8.618;2023-12-07T00:38:48;94325.03;;;12.38;37.28
70902;BME280;58548;47.210;8.618;2023-12-07T00:41:19;94289.50;;;12.21;37.76
70902;BME280;58548;47.210;8.618;2023-12-07T00:43:45;94273.69;;;12.08;37.43
70902;BME280;58548;47.210;8.618;2023-12-07T00:46:14;94271.31;;;12.13;37.53
70902;BME280;58548;47.210;8.618;2023-12-07T00:48:40;94300.84;;;12.35;37.24
70902;BME280;58548;47.210;8.618;2023-12-07T00:51:06;94276.19;;;12.23;37.41
70902;BME280;58548;47.210;8.618;2023-12-07T00:53:35;94314.97;;;12.41;37.20
70902;BME280;58548;47.210;8.618;2023-12-07T00:56:03;94321.44;;;12.45;37.43
70902;BME280;58548;47.210;8.618;2023-12-07T00:58:33;94300.41;;;12.32;37.56
70902;BME280;58548;47.210;8.618;2023-12-07T01:01:00;94285.63;;;12.17;37.35
70902;BME280;58548;47.210;8.618;2023-12-07T01:03:28;94293.72;;;12.23;37.43
70902;BME280;58548;47.210;8.618;2023-12-07T01:05:56;94323.44;;;12.43;37.50
70902;BME280;58548;47.210;8.618;2023-12-07T01:08:22;94306.47;;;12.32;37.17
70902;BME280;58548;47.210;8.618;2023-12-07T01:10:55;94329.44;;;12.37;36.71
70902;BME280;58548;47.210;8.618;2023-12-07T01:13:21;94286.19;;;12.06;37.01
70902;BME280;58548;47.210;8.618;2023-12-07T01:15:47;94313.69;;;12.24;36.80
70902;BME280;58548;47.210;8.618;2023-12-07T01:18:13;94309.19;;;12.11;37.12
70902;BME280;58548;47.210;8.618;2023-12-07T01:20:39;94327.28;;;12.12;37.13
70902;BME280;58548;47.210;8.618;2023-12-07T01:23:07;94327.09;;;12.07;37.44
70902;BME280;58548;47.210;8.618;2023-12-07T01:25:36;94323.09;;;11.89;37.18
70902;BME280;58548;47.210;8.618;2023-12-07T01:28:04;94332.78;;;11.89;37.43
70902;BME280;58548;47.210;8.618;2023-12-07T01:30:31;94322.16;;;11.69;37.06
70902;BME280;58548;47.210;8.618;2023-12-07T01:32:58;94290.59;;;11.42;37.12
70902;BME280;58548;47.210;8.618;2023-12-07T01:35:23;94323.47;;;11.58;37.39
70902;BME280;58548;47.210;8.618;2023-12-07T01:37:52;94334.16;;;11.56;37.29
70902;BME280;58548;47.210;8.618;2023-12-07T01:40:19;94314.50;;;11.39;37.28
70902;BME280;58548;47.210;8.618;2023-12-07T01:42:54;94329.03;;;11.48;37.66
70902;BME280;58548;47.210;8.618;2023-12-07T01:45:20;94345.84;;;11.60;37.80
70902;BME280;58548;47.210;8.618;2023-12-07T01:47:50;94316.75;;;11.42;38.21
70902;BME280;58548;47.210;8.618;2023-12-07T01:50:20;94313.50;;;11.40;37.86
70902;BME280;58548;47.210;8.618;2023-12-07T01:52:54;94348.69;;;11.66;38.18
70902;BME280;58548;47.210;8.618;2023-12-07T01:55:24;94315.97;;;11.48;38.08
70902;BME280;58548;47.210;8.618;2023-12-07T01:57:50;94337.19;;;11.60;37.92
70902;BME280;58548;47.210;8.618;2023-12-07T02:00:17;94326.44;;;11.48;37.69
70902;BME280;58548;47.210;8.618;2023-12-07T02:02:44;94335.16;;;11.55;38.14
70902;BME280;58548;47.210;8.618;2023-12-07T02:05:12;94337.19;;;11.60;37.60
70902;BME280;58548;47.210;8.618;2023-12-07T02:07:41;94334.53;;;11.53;37.50
70902;BME280;58548;47.210;8.618;2023-12-07T02:10:08;94265.72;;;11.02;37.37
70902;BME280;58548;47.210;8.618;2023-12-07T02:12:34;94284.47;;;11.06;37.15
70902;BME280;58548;47.210;8.618;2023-12-07T02:15:04;94300.31;;;11.05;37.40
70902;BME280;58548;47.210;8.618;2023-12-07T02:17:38;94341.75;;;11.29;37.68
70902;BME280;58548;47.210;8.618;2023-12-07T02:22:56;94340.72;;;11.24;37.03
70902;BME280;58548;47.210;8.618;2023-12-07T02:25:36;94306.16;;;10.85;36.99
70902;BME280;58548;47.210;8.618;2023-12-07T02:28:05;94295.16;;;10.68;36.79
70902;BME280;58548;47.210;8.618;2023-12-07T02:30:32;94329.81;;;10.77;37.21
70902;BME280;58548;47.210;8.618;2023-12-07T02:33:00;94338.25;;;10.79;37.97
70902;BME280;58548;47.210;8.618;2023-12-07T02:35:28;94301.50;;;10.44;38.06
70902;BME280;58548;47.210;8.618;2023-12-07T02:37:57;94323.63;;;10.48;38.09
70902;BME280;58548;47.210;8.618;2023-12-07T02:40:26;94342.06;;;10.61;38.24
70902;BME280;58548;47.210;8.618;2023-12-07T02:42:54;94342.44;;;10.58;38.46
70902;BME280;58548;47.210;8.618;2023-12-07T02:45:21;94347.69;;;10.58;38.83
70902;BME280;58548;47.210;8.618;2023-12-07T02:47:47;94296.72;;;10.32;38.79
70902;BME280;58548;47.210;8.618;2023-12-07T02:50:13;94309.16;;;10.45;38.91
70902;BME280;58548;47.210;8.618;2023-12-07T02:52:39;94245.53;;;10.16;39.27
70902;BME280;58548;47.210;8.618;2023-12-07T02:55:08;94280.69;;;10.35;39.54
70902;BME280;58548;47.210;8.618;2023-12-07T02:57:36;94329.16;;;10.75;38.96
70902;BME280;58548;47.210;8.618;2023-12-07T03:00:03;94345.72;;;11.04;38.84
70902;BME280;58548;47.210;8.618;2023-12-07T03:02:34;94356.69;;;11.14;39.04
70902;BME280;58548;47.210;8.618;2023-12-07T03:05:00;94279.00;;;10.64;39.12
70902;BME280;58548;47.210;8.618;2023-12-07T03:07:27;94258.44;;;10.54;39.57
70902;BME280;58548;47.210;8.618;2023-12-07T03:09:53;94312.75;;;11.02;39.79
70902;BME280;58548;47.210;8.618;2023-12-07T03:12:20;94320.06;;;11.07;39.81
70902;BME280;58548;47.210;8.618;2023-12-07T03:14:46;94329.38;;;11.16;40.27
70902;BME280;58548;47.210;8.618;2023-12-07T03:17:13;94310.91;;;11.18;40.01
70902;BME280;58548;47.210;8.618;2023-12-07T03:19:40;94301.63;;;11.15;40.20
70902;BME280;58548;47.210;8.618;2023-12-07T03:22:09;94309.66;;;11.14;39.77
70902;BME280;58548;47.210;8.618;2023-12-07T03:24:36;94316.75;;;11.20;39.56
70902;BME280;58548;47.210;8.618;2023-12-07T03:27:04;94336.72;;;11.28;40.10
70902;BME280;58548;47.210;8.618;2023-12-07T03:29:31;94309.66;;;11.14;39.75
70902;BME280;58548;47.210;8.618;2023-12-07T03:31:58;94328.06;;;11.27;39.36
70902;BME280;58548;47.210;8.618;2023-12-07T03:34:24;94292.09;;;11.08;39.21
70902;BME280;58548;47.210;8.618;2023-12-07T03:36:50;94304.44;;;11.14;39.13
70902;BME280;58548;47.210;8.618;2023-12-07T03:39:17;94348.25;;;11.34;38.66
70902;BME280;58548;47.210;8.618;2023-12-07T03:41:51;94300.09;;;10.99;38.57
70902;BME280;58548;47.210;8.618;2023-12-07T03:44:17;94345.13;;;11.23;38.55
70902;BME280;58548;47.210;8.618;2023-12-07T03:46:43;94337.22;;;11.16;38.95
70902;BME280;58548;47.210;8.618;2023-12-07T03:49:09;94342.44;;;11.16;38.31
70902;BME280;58548;47.210;8.618;2023-12-07T03:51:38;94318.75;;;10.96;38.88
70902;BME280;58548;47.210;8.618;2023-12-07T03:54:04;94340.13;;;11.07;38.12
70902;BME280;58548;47.210;8.618;2023-12-07T03:56:32;94302.19;;;10.89;38.42
70902;BME280;58548;47.210;8.618;2023-12-07T03:58:59;94334.91;;;11.07;38.83
70902;BME280;58548;47.210;8.618;2023-12-07T04:01:29;94342.75;;;11.07;38.65
70902;BME280;58548;47.210;8.618;2023-12-07T04:03:56;94320.59;;;11.02;38.92
70902;BME280;58548;47.210;8.618;2023-12-07T04:06:24;94325.59;;;10.97;38.55
70902;BME280;58548;47.210;8.618;2023-12-07T04:08:51;94345.50;;;11.20;38.66
70902;BME280;58548;47.210;8.618;2023-12-07T04:11:17;94318.19;;;11.01;38.39
70902;BME280;58548;47.210;8.618;2023-12-07T04:13:45;94314.25;;;10.90;38.68
70902;BME280;58548;47.210;8.618;2023-12-07T04:16:12;94352.41;;;11.06;39.03
70902;BME280;58548;47.210;8.618;2023-12-07T04:18:38;94326.81;;;10.80;38.75
70902;BME280;58548;47.210;8.618;2023-12-07T04:21:04;94356.88;;;10.91;38.40
70902;BME280;58548;47.210;8.618;2023-12-07T04:23:34;94329.25;;;10.66;38.62
70902;BME280;58548;47.210;8.618;2023-12-07T04:26:02;94340.72;;;10.65;38.57
70902;BME280;58548;47.210;8.618;2023-12-07T04:28:28;94278.91;;;10.21;38.73
70902;BME280;58548;47.210;8.618;2023-12-07T04:30:56;94342.59;;;10.71;38.17
70902;BME280;58548;47.210;8.618;2023-12-07T04:33:25;94306.44;;;10.38;37.53
70902;BME280;58548;47.210;8.618;2023-12-07T04:35:52;94299.69;;;10.29;37.36
70902;BME280;58548;47.210;8.618;2023-12-07T04:38:21;94347.84;;;10.41;37.74
70902;BME280;58548;47.210;8.618;2023-12-07T04:40:48;94277.13;;;9.76;37.29
70902;BME280;58548;47.210;8.618;2023-12-07T04:43:16;94326.25;;;10.03;36.93
70902;BME280;58548;47.210;8.618;2023-12-07T04:45:43;94321.81;;;9.88;36.93
70902;BME280;58548;47.210;8.618;2023-12-07T04:48:09;94282.31;;;9.46;36.81
70902;BME280;58548;47.210;8.618;2023-12-07T04:50:36;94316.31;;;9.53;37.34
70902;BME280;58548;47.210;8.618;2023-12-07T04:53:07;94303.72;;;9.42;37.47
70902;BME280;58548;47.210;8.618;2023-12-07T04:55:38;94315.94;;;9.41;37.43
70902;BME280;58548;47.210;8.618;2023-12-07T04:58:08;94302.59;;;9.36;37.86
70902;BME280;58548;47.210;8.618;2023-12-07T05:00:34;94303.31;;;9.30;37.66
70902;BME280;58548;47.210;8.618;2023-12-07T05:03:00;94276.13;;;9.09;37.50
70902;BME280;58548;47.210;8.618;2023-12-07T05:05:26;94342.00;;;9.41;37.19
70902;BME280;58548;47.210;8.618;2023-12-07T05:07:52;94314.16;;;9.18;37.92
70902;BME280;58548;47.210;8.618;2023-12-07T05:10:18;94292.38;;;9.11;37.44
70902;BME280;58548;47.210;8.618;2023-12-07T05:12:44;94302.19;;;9.09;37.50
70902;BME280;58548;47.210;8.618;2023-12-07T05:15:10;94252.59;;;8.79;37.78
70902;BME280;58548;47.210;8.618;2023-12-07T05:17:42;94300.09;;;9.04;38.20
70902;BME280;58548;47.210;8.618;2023-12-07T05:20:11;94321.81;;;9.20;38.07
70902;BME280;58548;47.210;8.618;2023-12-07T05:22:40;94311.34;;;9.05;38.73
70902;BME280;58548;47.210;8.618;2023-12-07T05:25:09;94226.47;;;8.41;38.33
70902;BME280;58548;47.210;8.618;2023-12-07T05:27:35;94274.44;;;8.70;38.56
70902;BME280;58548;47.210;8.618;2023-12-07T05:30:04;94287.13;;;8.73;38.82
70902;BME280;58548;47.210;8.618;2023-12-07T05:32:32;94270.22;;;8.69;38.12
70902;BME280;58548;47.210;8.618;2023-12-07T05:35:01;94304.25;;;8.90;38.26
70902;BME280;58548;47.210;8.618;2023-12-07T05:37:31;94296.22;;;8.77;38.02
70902;BME280;58548;47.210;8.618;2023-12-07T05:39:57;94327.66;;;8.99;38.52
70902;BME280;58548;47.210;8.618;2023-12-07T05:42:23;94323.75;;;8.95;38.63
70902;BME280;58548;47.210;8.618;2023-12-07T05:44:54;94289.09;;;8.71;38.34
70902;BME280;58548;47.210;8.618;2023-12-07T05:47:27;94319.66;;;9.00;38.73
70902;BME280;58548;47.210;8.618;2023-12-07T05:49:54;94287.22;;;8.80;38.24
70902;BME280;58548;47.210;8.618;2023-12-07T05:52:23;94302.94;;;8.95;37.90
70902;BME280;58548;47.210;8.618;2023-12-07T05:54:49;94247.75;;;8.44;38.59
70902;BME280;58548;47.210;8.618;2023-12-07T05:57:22;94318.63;;;8.86;38.92
70902;BME280;58548;47.210;8.618;2023-12-07T05:59:48;94302.41;;;8.76;38.67
70902;BME280;58548;47.210;8.618;2023-12-07T06:02:18;94313.47;;;8.78;38.83
70902;BME280;58548;47.210;8.618;2023-12-07T06:04:44;94325.47;;;8.87;38.38
70902;BME280;58548;47.210;8.618;2023-12-07T06:07:10;94277.16;;;8.53;38.53
70902;BME280;58548;47.210;8.618;2023-12-07T06:09:38;94300.47;;;8.70;38.72
70902;BME280;58548;47.210;8.618;2023-12-07T06:12:07;94262.03;;;8.57;38.28
70902;BME280;58548;47.210;8.618;2023-12-07T06:14:39;94273.56;;;8.54;38.73
70902;BME280;58548;47.210;8.618;2023-12-07T06:17:09;94295.28;;;8.70;38.93
70902;BME280;58548;47.210;8.618;2023-12-07T06:19:37;94297.72;;;8.71;38.72
70902;BME280;58548;47.210;8.618;2023-12-07T06:22:03;94318.63;;;8.86;38.87
70902;BME280;58548;47.210;8.618;2023-12-07T06:24:29;94288.09;;;8.72;38.45
70902;BME280;58548;47.210;8.618;2023-12-07T06:26:58;94251.13;;;8.53;38.26
70902;BME280;58548;47.210;8.618;2023-12-07T06:29:32;94255.00;;;8.57;38.53
70902;BME280;58548;47.210;8.618;2023-12-07T06:32:02;94311.47;;;8.88;38.81
70902;BME280;58548;47.210;8.618;2023-12-07T06:34:32;94299.75;;;8.84;38.12
70902;BME280;58548;47.210;8.618;2023-12-07T06:36:59;94306.81;;;8.75;38.77
70902;BME280;58548;47.210;8.618;2023-12-07T06:39:27;94269.03;;;8.48;38.39
70902;BME280;58548;47.210;8.618;2023-12-07T06:41:55;94274.41;;;8.47;38.96
70902;BME280;58548;47.210;8.618;2023-12-07T06:44:21;94304.78;;;8.63;38.39
70902;BME280;58548;47.210;8.618;2023-12-07T06:46:51;94297.75;;;8.63;37.98
70902;BME280;58548;47.210;8.618;2023-12-07T06:49:17;94330.72;;;8.79;38.02
70902;BME280;58548;47.210;8.618;2023-12-07T06:51:43;94328.84;;;8.65;37.74
70902;BME280;58548;47.210;8.618;2023-12-07T06:54:09;94260.09;;;8.19;37.24
70902;BME280;58548;47.210;8.618;2023-12-07T06:56:41;94216.06;;;7.78;37.89
70902;BME280;58548;47.210;8.618;2023-12-07T06:59:07;94318.56;;;8.32;37.38
70902;BME280;58548;47.210;8.618;2023-12-07T07:01:36;94309.47;;;8.27;37.41
70902;BME280;58548;47.210;8.618;2023-12-07T07:04:03;94291.31;;;8.11;37.62
70902;BME280;58548;47.210;8.618;2023-12-07T07:06:30;94258.94;;;7.82;37.30
70902;BME280;58548;47.210;8.618;2023-12-07T07:08:58;94291.00;;;8.06;37.66
70902;BME280;58548;47.210;8.618;2023-12-07T07:11:25;94303.03;;;8.07;38.05
70902;BME280;58548;47.210;8.618;2023-12-07T07:13:52;94302.09;;;7.99;37.70
70902;BME280;58548;47.210;8.618;2023-12-07T07:16:18;94290.09;;;7.98;37.77
70902;BME280;58548;47.210;8.618;2023-12-07T07:18:47;94275.81;;;7.86;37.97
70902;BME280;58548;47.210;8.618;2023-12-07T07:21:14;94287.16;;;7.93;38.09
70902;BME280;58548;47.210;8.618;2023-12-07T07:23:45;94291.91;;;7.90;38.61
70902;BME280;58548;47.210;8.618;2023-12-07T07:26:13;94264.81;;;7.76;38.23
70902;BME280;58548;47.210;8.618;2023-12-07T07:28:47;94311.34;;;8.10;38.46
70902;BME280;58548;47.210;8.618;2023-12-07T07:31:23;94328.66;;;8.26;39.13
70902;BME280;58548;47.210;8.618;2023-12-07T07:33:50;94304.78;;;8.23;39.01
70902;BME280;58548;47.210;8.618;2023-12-07T07:36:17;94330.84;;;8.54;39.05
70902;BME280;58548;47.210;8.618;2023-12-07T07:38:50;94298.00;;;8.45;39.29
70902;BME280;58548;47.210;8.618;2023-12-07T07:41:23;94328.56;;;8.83;39.68
70902;BME280;58548;47.210;8.618;2023-12-07T07:43:51;94305.75;;;8.85;39.56
70902;BME280;58548;47.210;8.618;2023-12-07T07:46:21;94316.41;;;9.22;39.33
70902;BME280;58548;47.210;8.618;2023-12-07T07:48:49;94306.63;;;9.24;39.06
70902;BME280;58548;47.210;8.618;2023-12-07T07:51:18;94323.34;;;9.53;39.44
70902;BME280;58548;47.210;8.618;2023-12-07T07:53:46;94267.81;;;9.44;39.89
70902;BME280;58548;47.210;8.618;2023-12-07T07:56:14;94283.16;;;9.92;40.63
70902;BME280;58548;47.210;8.618;2023-12-07T07:58:42;94282.06;;;10.46;40.78
70902;BME280;58548;47.210;8.618;2023-12-07T08:01:08;94305.09;;;11.01;39.99
70902;BME280;58548;47.210;8.618;2023-12-07T08:03:34;94266.31;;;11.26;39.10
70902;BME280;58548;47.210;8.618;2023-12-07T08:06:03;94296.91;;;11.83;39.23
70902;BME280;58548;47.210;8.618;2023-12-07T08:08:29;94288.66;;;12.14;38.25
70902;BME280;58548;47.210;8.618;2023-12-07T08:10:56;94285.53;;;12.39;36.36
70902;BME280;58548;47.210;8.618;2023-12-07T08:13:31;94300.16;;;12.75;34.96
70902;BME280;58548;47.210;8.618;2023-12-07T08:15:57;94275.56;;;12.83;34.64
70902;BME280;58548;47.210;8.618;2023-12-07T08:18:23;94275.00;;;13.15;34.34
70902;BME280;58548;47.210;8.618;2023-12-07T08:20:56;94295.84;;;13.63;33.90
70902;BME280;58548;47.210;8.618;2023-12-07T08:23:22;94301.66;;;13.92;33.39
70902;BME280;58548;47.210;8.618;2023-12-07T08:25:53;94313.88;;;14.39;33.86
70902;BME280;58548;47.210;8.618;2023-12-07T08:28:25;94311.50;;;14.83;32.77
70902;BME280;58548;47.210;8.618;2023-12-07T08:30:53;94269.16;;;14.98;31.88
70902;BME280;58548;47.210;8.618;2023-12-07T08:33:21;94309.41;;;15.56;30.90
70902;BME280;58548;47.210;8.618;2023-12-07T08:35:51;94313.75;;;15.94;30.68
70902;BME280;58548;47.210;8.618;2023-12-07T08:38:23;94290.81;;;16.20;29.41
70902;BME280;58548;47.210;8.618;2023-12-07T08:40:50;94278.63;;;16.56;28.76
70902;BME280;58548;47.210;8.618;2023-12-07T08:43:15;94292.78;;;17.11;28.31
70902;BME280;58548;47.210;8.618;2023-12-07T08:45:44;94263.44;;;17.31;26.67
70902;BME280;58548;47.210;8.618;2023-12-07T08:48:10;94212.00;;;17.10;27.23
70902;BME280;58548;47.210;8.618;2023-12-07T08:50:41;94274.59;;;17.45;26.03
70902;BME280;58548;47.210;8.618;2023-12-07T08:53:07;94259.28;;;17.23;25.78
70902;BME280;58548;47.210;8.618;2023-12-07T08:55:33;94249.72;;;16.98;26.03
70902;BME280;58548;47.210;8.618;2023-12-07T08:58:02;94274.19;;;16.87;26.21
70902;BME280;58548;47.210;8.618;2023-12-07T09:00:37;94271.16;;;16.71;26.73
70902;BME280;58548;47.210;8.618;2023-12-07T09:03:07;94290.19;;;16.73;27.27
70902;BME280;58548;47.210;8.618;2023-12-07T09:05:35;94280.00;;;16.77;27.02
70902;BME280;58548;47.210;8.618;2023-12-07T09:08:08;94232.09;;;16.50;26.78
70902;BME280;58548;47.210;8.618;2023-12-07T09:10:35;94235.97;;;16.47;27.03
70902;BME280;58548;47.210;8.618;2023-12-07T09:13:02;94268.63;;;16.77;26.85
70902;BME280;58548;47.210;8.618;2023-12-07T09:15:28;94263.06;;;16.85;26.53
70902;BME280;58548;47.210;8.618;2023-12-07T09:17:56;94239.53;;;16.71;26.14
70902;BME280;58548;47.210;8.618;2023-12-07T09:20:24;94253.84;;;16.76;26.50
70902;BME280;58548;47.210;8.618;2023-12-07T09:22:53;94285.34;;;16.89;26.27
70902;BME280;58548;47.210;8.618;2023-12-07T09:25:25;94253.53;;;16.84;27.04
70902;BME280;58548;47.210;8.618;2023-12-07T09:27:53;94280.53;;;17.28;26.85
70902;BME280;58548;47.210;8.618;2023-12-07T09:30:20;94271.19;;;17.56;27.00
70902;BME280;58548;47.210;8.618;2023-12-07T09:32:53;94287.38;;;17.96;26.85
70902;BME280;58548;47.210;8.618;2023-12-07T09:35:21;94245.22;;;18.01;26.55
70902;BME280;58548;47.210;8.618;2023-12-07T09:37:49;94263.50;;;18.55;25.99
70902;BME280;58548;47.210;8.618;2023-12-07T09:40:21;94268.63;;;19.03;25.11
70902;BME280;58548;47.210;8.618;2023-12-07T09:42:48;94273.75;;;19.38;25.03
70902;BME280;58548;47.210;8.618;2023-12-07T09:45:16;94269.66;;;19.82;23.96
70902;BME280;58548;47.210;8.618;2023-12-07T09:47:52;94266.00;;;20.22;23.95
70902;BME280;58548;47.210;8.618;2023-12-07T09:50:26;94267.91;;;20.71;22.59
70902;BME280;58548;47.210;8.618;2023-12-07T09:52:57;94271.47;;;21.04;23.02
70902;BME280;58548;47.210;8.618;2023-12-07T09:55:24;94260.56;;;21.33;22.49
70902;BME280;58548;47.210;8.618;2023-12-07T09:57:53;94238.59;;;21.43;21.49
70902;BME280;58548;47.210;8.618;2023-12-07T10:00:31;94250.16;;;21.97;20.70
70902;BME280;58548;47.210;8.618;2023-12-07T10:03:01;94263.81;;;22.64;20.93
70902;BME280;58548;47.210;8.618;2023-12-07T10:05:29;94239.44;;;23.14;20.31
70902;BME280;58548;47.210;8.618;2023-12-07T10:07:55;94211.22;;;23.64;19.51
70902;BME280;58548;47.210;8.618;2023-12-07T10:10:24;94221.19;;;24.40;18.44
70902;BME280;58548;47.210;8.618;2023-12-07T10:13:02;94202.25;;;24.97;18.37
70902;BME280;58548;47.210;8.618;2023-12-07T10:15:31;94250.88;;;25.73;18.11
70902;BME280;58548;47.210;8.618;2023-12-07T10:18:01;94233.94;;;26.13;16.91
70902;BME280;58548;47.210;8.618;2023-12-07T10:20:29;94226.31;;;26.25;17.12
70902;BME280;58548;47.210;8.618;2023-12-07T10:23:04;94228.75;;;26.46;16.18
70902;BME280;58548;47.210;8.618;2023-12-07T10:25:36;94200.38;;;26.45;16.08
70902;BME280;58548;47.210;8.618;2023-12-07T10:28:03;94194.00;;;26.16;15.66
70902;BME280;58548;47.210;8.618;2023-12-07T10:30:33;94213.00;;;26.39;15.95
70902;BME280;58548;47.210;8.618;2023-12-07T10:32:59;94206.03;;;26.62;15.53
70902;BME280;58548;47.210;8.618;2023-12-07T10:35:25;94196.72;;;26.79;14.54
70902;BME280;58548;47.210;8.618;2023-12-07T10:37:54;94194.78;;;27.04;15.19
70902;BME280;58548;47.210;8.618;2023-12-07T10:40:20;94207.88;;;27.05;14.26
70902;BME280;58548;47.210;8.618;2023-12-07T10:42:56;94182.06;;;26.52;14.56
70902;BME280;58548;47.210;8.618;2023-12-07T10:45:30;94198.88;;;26.58;15.00
70902;BME280;58548;47.210;8.618;2023-12-07T10:48:08;94203.69;;;26.80;15.57
70902;BME280;58548;47.210;8.618;2023-12-07T10:50:45;94206.72;;;26.92;14.28
70902;BME280;58548;47.210;8.618;2023-12-07T10:53:22;94207.44;;;26.79;15.04
70902;BME280;58548;47.210;8.618;2023-12-07T10:55:56;94205.31;;;26.76;14.46
70902;BME280;58548;47.210;8.618;2023-12-07T10:58:23;94212.75;;;26.84;14.64
70902;BME280;58548;47.210;8.618;2023-12-07T11:00:52;94210.22;;;26.93;14.84
70902;BME280;58548;47.210;8.618;2023-12-07T11:03:20;94183.41;;;26.93;14.83
70902;BME280;58548;47.210;8.618;2023-12-07T11:05:52;94209.63;;;27.15;15.14
70902;BME280;58548;47.210;8.618;2023-12-07T11:11:01;94182.47;;;27.03;15.01
70902;BME280;58548;47.210;8.618;2023-12-07T11:13:36;94216.88;;;27.15;14.82
70902;BME280;58548;47.210;8.618;2023-12-07T11:16:03;94165.16;;;26.76;14.40
70902;BME280;58548;47.210;8.618;2023-12-07T11:18:33;94208.03;;;26.95;14.24
70902;BME280;58548;47.210;8.618;2023-12-07T11:21:00;94204.06;;;26.92;14.71
70902;BME280;58548;47.210;8.618;2023-12-07T11:23:30;94184.41;;;26.78;14.53
70902;BME280;58548;47.210;8.618;2023-12-07T11:25:56;94197.69;;;27.07;14.35
70902;BME280;58548;47.210;8.618;2023-12-07T11:28:37;94157.69;;;27.11;14.26
70902;BME280;58548;47.210;8.618;2023-12-07T11:31:07;94174.44;;;27.55;14.07
70902;BME280;58548;47.210;8.618;2023-12-07T11:33:33;94180.97;;;27.96;13.47
70902;BME280;58548;47.210;8.618;2023-12-07T11:38:29;94139.41;;;28.35;13.12
70902;BME280;58548;47.210;8.618;2023-12-07T11:40:56;94171.78;;;28.81;12.55
70902;BME280;58548;47.210;8.618;2023-12-07T11:46:10;94139.63;;;29.12;12.13
70902;BME280;58548;47.210;8.618;2023-12-07T11:48:39;94120.38;;;28.96;11.96
70902;BME280;58548;47.210;8.618;2023-12-07T11:51:12;94119.00;;;28.85;12.57
70902;BME280;58548;47.210;8.618;2023-12-07T11:53:40;94111.69;;;28.77;13.00
70902;BME280;58548;47.210;8.618;2023-12-07T11:56:08;94105.41;;;28.67;12.38
70902;BME280;58548;47.210;8.618;2023-12-07T11:58:44;94115.50;;;28.48;12.70
70902;BME280;58548;47.210;8.618;2023-12-07T12:01:12;94129.94;;;28.52;12.39
70902;BME280;58548;47.210;8.618;2023-12-07T12:03:38;94106.53;;;28.52;12.71
70902;BME280;58548;47.210;8.618;2023-12-07T12:06:06;94106.88;;;28.73;12.66
70902;BME280;58548;47.210;8.618;2023-12-07T12:08:34;94071.88;;;28.79;12.43
70902;BME280;58548;47.210;8.618;2023-12-07T12:11:02;94100.25;;;29.16;12.75
70902;BME280;58548;47.210;8.618;2023-12-07T12:13:33;94103.59;;;29.45;12.17
70902;BME280;58548;47.210;8.618;2023-12-07T12:16:03;94087.88;;;29.70;12.10
70902;BME280;58548;47.210;8.618;2023-12-07T12:18:34;94073.13;;;29.99;12.00
70902;BME280;58548;47.210;8.618;2023-12-07T12:21:02;94076.97;;;30.15;11.47
70902;BME280;58548;47.210;8.618;2023-12-07T12:23:28;94069.38;;;30.35;11.63
70902;BME280;58548;47.210;8.618;2023-12-07T12:25:57;94058.47;;;30.49;11.23
70902;BME280;58548;47.210;8.618;2023-12-07T12:28:24;94045.97;;;30.62;11.19
70902;BME280;58548;47.210;8.618;2023-12-07T12:30:50;94070.38;;;30.92;10.70
70902;BME280;58548;47.210;8.618;2023-12-07T12:33:17;94048.34;;;30.81;10.82
70902;BME280;58548;47.210;8.618;2023-12-07T12:35:45;94062.44;;;30.87;11.39
70902;BME280;58548;47.210;8.618;2023-12-07T12:38:14;94049.75;;;30.78;10.77
70902;BME280;58548;47.210;8.618;2023-12-07T12:40:40;94051.19;;;30.76;11.52
70902;BME280;58548;47.210;8.618;2023-12-07T12:43:09;93982.56;;;30.20;11.35
70902;BME280;58548;47.210;8.618;2023-12-07T12:45:37;94026.13;;;30.22;10.95
70902;BME280;58548;47.210;8.618;2023-12-07T12:48:04;94073.03;;;30.39;11.44
70902;BME280;58548;47.210;8.618;2023-12-07T12:50:40;94049.88;;;30.03;11.50
70902;BME280;58548;47.210;8.618;2023-12-07T12:53:10;94066.59;;;29.91;11.76
70902;BME280;58548;47.210;8.618;2023-12-07T12:55:40;94081.56;;;29.66;12.05
70902;BME280;58548;47.210;8.618;2023-12-07T12:58:10;94090.72;;;29.33;11.87
70902;BME280;58548;47.210;8.618;2023-12-07T13:00:41;94047.50;;;28.61;12.67
70902;BME280;58548;47.210;8.618;2023-12-07T13:03:11;94091.50;;;27.87;12.95
70902;BME280;58548;47.210;8.618;2023-12-07T13:05:39;94031.19;;;26.43;14.27
70902;BME280;58548;47.210;8.618;2023-12-07T13:08:07;94075.25;;;25.64;14.46
70902;BME280;58548;47.210;8.618;2023-12-07T13:10:34;94068.16;;;24.55;15.58
70902;BME280;58548;47.210;8.618;2023-12-07T13:13:02;94057.50;;;23.39;16.73
70902;BME280;58548;47.210;8.618;2023-12-07T13:15:31;94089.72;;;22.55;17.58
70902;BME280;58548;47.210;8.618;2023-12-07T13:18:00;94082.94;;;21.47;18.76
70902;BME280;58548;47.210;8.618;2023-12-07T13:20:34;94058.44;;;20.59;19.64